sensor_id;sensor_type;location;lat;lon;timestamp;P1;durP1;ratioP1;P2;durP2;ratioP2
59127;SDS011;44912;52.754;5.994;2024-03-08T00:01:59;27.52;;;16.52;;
59127;SDS011;44912;52.754;5.994;2024-03-08T00:04:25;30.63;;;16.98;;
59127;SDS011;44912;52.754;5.994;2024-03-08T00:06:51;30.55;;;17.67;;
59127;SDS011;44912;52.754;5.994;2024-03-08T00:09:17;32.60;;;17.35;;
59127;SDS011;44912;52.754;5.994;2024-03-08T00:11:43;32.80;;;18.35;;
59127;SDS011;44912;52.754;5.994;2024-03-08T00:14:08;30.80;;;17.85;;
59127;SDS011;44912;52.754;5.994;2024-03-08T00:16:34;27.70;;;16.73;;
59127;SDS011;44912;52.754;5.994;2024-03-08T00:19:00;27.98;;;18.02;;
59127;SDS011;44912;52.754;5.994;2024-03-08T00:21:26;31.92;;;18.08;;
59127;SDS011;44912;52.754;5.994;2024-03-08T00:23:52;34.55;;;18.05;;
59127;SDS011;44912;52.754;5.994;2024-03-08T00:26:19;28.00;;;16.88;;
59127;SDS011;44912;52.754;5.994;2024-03-08T00:28:47;32.38;;;16.63;;
59127;SDS011;44912;52.754;5.994;2024-03-08T00:31:13;30.52;;;16.52;;
59127;SDS011;44912;52.754;5.994;2024-03-08T00:33:42;29.13;;;17.30;;
59127;SDS011;44912;52.754;5.994;2024-03-08T00:36:07;31.77;;;17.90;;
59127;SDS011;44912;52.754;5.994;2024-03-08T00:38:33;27.27;;;16.40;;
59127;SDS011;44912;52.754;5.994;2024-03-08T00:40:59;27.65;;;16.83;;
59127;SDS011;44912;52.754;5.994;2024-03-08T00:43:25;30.48;;;16.63;;
59127;SDS011;44912;52.754;5.994;2024-03-08T00:45:51;34.05;;;17.45;;
59127;SDS011;44912;52.754;5.994;2024-03-08T00:48:16;33.35;;;18.67;;
59127;SDS011;44912;52.754;5.994;2024-03-08T00:50:42;29.88;;;17.58;;
59127;SDS011;44912;52.754;5.994;2024-03-08T00:53:10;34.40;;;17.70;;
59127;SDS011;44912;52.754;5.994;2024-03-08T00:55:39;31.13;;;18.25;;
59127;SDS011;44912;52.754;5.994;2024-03-08T00:58:05;35.00;;;17.67;;
59127;SDS011;44912;52.754;5.994;2024-03-08T01:00:30;29.67;;;17.38;;
59127;SDS011;44912;52.754;5.994;2024-03-08T01:02:56;34.80;;;18.65;;
59127;SDS011;44912;52.754;5.994;2024-03-08T01:05:22;29.73;;;17.63;;
59127;SDS011;44912;52.754;5.994;2024-03-08T01:07:50;32.90;;;18.02;;
59127;SDS011;44912;52.754;5.994;2024-03-08T01:10:16;29.85;;;17.60;;
59127;SDS011;44912;52.754;5.994;2024-03-08T01:12:42;29.40;;;17.67;;
59127;SDS011;44912;52.754;5.994;2024-03-08T01:15:08;29.88;;;18.50;;
59127;SDS011;44912;52.754;5.994;2024-03-08T01:17:35;28.25;;;16.92;;
59127;SDS011;44912;52.754;5.994;2024-03-08T01:20:02;31.85;;;19.00;;
59127;SDS011;44912;52.754;5.994;2024-03-08T01:22:28;28.63;;;16.80;;
59127;SDS011;44912;52.754;5.994;2024-03-08T01:24:55;30.73;;;17.83;;
59127;SDS011;44912;52.754;5.994;2024-03-08T01:27:21;27.08;;;17.30;;
59127;SDS011;44912;52.754;5.994;2024-03-08T01:29:47;30.45;;;18.05;;
59127;SDS011;44912;52.754;5.994;2024-03-08T01:32:13;30.83;;;18.45;;
59127;SDS011;44912;52.754;5.994;2024-03-08T01:34:39;30.60;;;18.73;;
59127;SDS011;44912;52.754;5.994;2024-03-08T01:37:05;30.67;;;17.92;;
59127;SDS011;44912;52.754;5.994;2024-03-08T01:39:31;27.27;;;16.90;;
59127;SDS011;44912;52.754;5.994;2024-03-08T01:41:57;29.13;;;16.70;;
59127;SDS011;44912;52.754;5.994;2024-03-08T01:44:23;33.70;;;18.67;;
59127;SDS011;44912;52.754;5.994;2024-03-08T01:46:49;30.65;;;17.67;;
59127;SDS011;44912;52.754;5.994;2024-03-08T01:49:18;29.25;;;17.77;;
59127;SDS011;44912;52.754;5.994;2024-03-08T01:51:46;32.38;;;18.08;;
59127;SDS011;44912;52.754;5.994;2024-03-08T01:54:14;31.60;;;18.45;;
59127;SDS011;44912;52.754;5.994;2024-03-08T01:56:41;31.48;;;18.55;;
59127;SDS011;44912;52.754;5.994;2024-03-08T01:59:08;29.77;;;18.40;;
59127;SDS011;44912;52.754;5.994;2024-03-08T02:01:34;31.05;;;18.60;;
59127;SDS011;44912;52.754;5.994;2024-03-08T02:03:59;35.85;;;19.50;;
59127;SDS011;44912;52.754;5.994;2024-03-08T02:06:25;32.00;;;18.65;;
59127;SDS011;44912;52.754;5.994;2024-03-08T02:08:51;33.22;;;20.00;;
59127;SDS011;44912;52.754;5.994;2024-03-08T02:11:17;32.15;;;20.08;;
59127;SDS011;44912;52.754;5.994;2024-03-08T02:13:44;32.83;;;18.38;;
59127;SDS011;44912;52.754;5.994;2024-03-08T02:16:09;32.30;;;18.88;;
59127;SDS011;44912;52.754;5.994;2024-03-08T02:18:35;29.98;;;19.58;;
59127;SDS011;44912;52.754;5.994;2024-03-08T02:21:02;31.88;;;19.13;;
59127;SDS011;44912;52.754;5.994;2024-03-08T02:23:29;35.97;;;19.92;;
59127;SDS011;44912;52.754;5.994;2024-03-08T02:25:55;34.47;;;20.27;;
59127;SDS011;44912;52.754;5.994;2024-03-08T02:28:21;32.03;;;19.13;;
59127;SDS011;44912;52.754;5.994;2024-03-08T02:30:48;32.00;;;19.75;;
59127;SDS011;44912;52.754;5.994;2024-03-08T02:33:16;33.60;;;19.40;;
59127;SDS011;44912;52.754;5.994;2024-03-08T02:35:43;33.22;;;19.52;;
59127;SDS011;44912;52.754;5.994;2024-03-08T02:38:13;33.55;;;20.63;;
59127;SDS011;44912;52.754;5.994;2024-03-08T02:40:41;32.00;;;19.15;;
59127;SDS011;44912;52.754;5.994;2024-03-08T02:43:08;36.80;;;20.10;;
59127;SDS011;44912;52.754;5.994;2024-03-08T02:45:34;32.72;;;19.52;;
59127;SDS011;44912;52.754;5.994;2024-03-08T02:48:00;35.65;;;20.40;;
59127;SDS011;44912;52.754;5.994;2024-03-08T02:50:25;34.92;;;20.27;;
59127;SDS011;44912;52.754;5.994;2024-03-08T02:52:51;34.45;;;20.13;;
59127;SDS011;44912;52.754;5.994;2024-03-08T02:55:17;31.90;;;19.45;;
59127;SDS011;44912;52.754;5.994;2024-03-08T02:57:43;29.20;;;19.05;;
59127;SDS011;44912;52.754;5.994;2024-03-08T03:00:09;31.77;;;20.08;;
59127;SDS011;44912;52.754;5.994;2024-03-08T03:02:36;31.70;;;18.83;;
59127;SDS011;44912;52.754;5.994;2024-03-08T03:05:02;35.83;;;19.88;;
59127;SDS011;44912;52.754;5.994;2024-03-08T03:07:31;33.75;;;20.88;;
59127;SDS011;44912;52.754;5.994;2024-03-08T03:09:58;34.45;;;20.13;;
59127;SDS011;44912;52.754;5.994;2024-03-08T03:12:25;36.00;;;21.88;;
59127;SDS011;44912;52.754;5.994;2024-03-08T03:14:54;33.65;;;19.88;;
59127;SDS011;44912;52.754;5.994;2024-03-08T03:17:21;35.67;;;20.92;;
59127;SDS011;44912;52.754;5.994;2024-03-08T03:19:48;32.60;;;20.17;;
59127;SDS011;44912;52.754;5.994;2024-03-08T03:22:13;35.05;;;20.52;;
59127;SDS011;44912;52.754;5.994;2024-03-08T03:24:40;35.22;;;20.58;;
59127;SDS011;44912;52.754;5.994;2024-03-08T03:27:07;34.67;;;20.60;;
59127;SDS011;44912;52.754;5.994;2024-03-08T03:29:39;32.47;;;20.45;;
59127;SDS011;44912;52.754;5.994;2024-03-08T03:32:07;33.53;;;21.25;;
59127;SDS011;44912;52.754;5.994;2024-03-08T03:34:33;32.95;;;20.83;;
59127;SDS011;44912;52.754;5.994;2024-03-08T03:37:01;32.10;;;20.13;;
59127;SDS011;44912;52.754;5.994;2024-03-08T03:39:28;32.40;;;19.92;;
59127;SDS011;44912;52.754;5.994;2024-03-08T03:41:57;35.72;;;21.85;;
59127;SDS011;44912;52.754;5.994;2024-03-08T03:44:23;36.83;;;21.45;;
59127;SDS011;44912;52.754;5.994;2024-03-08T03:46:49;33.33;;;21.17;;
59127;SDS011;44912;52.754;5.994;2024-03-08T03:49:18;32.88;;;20.10;;
59127;SDS011;44912;52.754;5.994;2024-03-08T03:51:43;33.70;;;20.58;;
59127;SDS011;44912;52.754;5.994;2024-03-08T03:54:09;34.97;;;21.25;;
59127;SDS011;44912;52.754;5.994;2024-03-08T03:56:35;33.22;;;21.50;;
59127;SDS011;44912;52.754;5.994;2024-03-08T03:59:01;32.10;;;20.17;;
59127;SDS011;44912;52.754;5.994;2024-03-08T04:01:27;32.20;;;19.88;;
59127;SDS011;44912;52.754;5.994;2024-03-08T04:03:53;36.13;;;20.75;;
59127;SDS011;44912;52.754;5.994;2024-03-08T04:06:20;31.02;;;20.60;;
59127;SDS011;44912;52.754;5.994;2024-03-08T04:08:45;35.17;;;21.33;;
59127;SDS011;44912;52.754;5.994;2024-03-08T04:11:11;34.42;;;21.08;;
59127;SDS011;44912;52.754;5.994;2024-03-08T04:13:37;33.80;;;21.38;;
59127;SDS011;44912;52.754;5.994;2024-03-08T04:16:02;32.50;;;20.75;;
59127;SDS011;44912;52.754;5.994;2024-03-08T04:18:33;34.30;;;20.75;;
59127;SDS011;44912;52.754;5.994;2024-03-08T04:21:01;34.72;;;22.00;;
59127;SDS011;44912;52.754;5.994;2024-03-08T04:23:27;32.38;;;21.00;;
59127;SDS011;44912;52.754;5.994;2024-03-08T04:25:53;32.95;;;20.60;;
59127;SDS011;44912;52.754;5.994;2024-03-08T04:28:19;35.70;;;22.02;;
59127;SDS011;44912;52.754;5.994;2024-03-08T04:30:45;35.05;;;22.75;;
59127;SDS011;44912;52.754;5.994;2024-03-08T04:33:11;33.60;;;21.80;;
59127;SDS011;44912;52.754;5.994;2024-03-08T04:35:37;35.30;;;21.75;;
59127;SDS011;44912;52.754;5.994;2024-03-08T04:38:02;34.35;;;21.17;;
59127;SDS011;44912;52.754;5.994;2024-03-08T04:40:30;38.10;;;23.08;;
59127;SDS011;44912;52.754;5.994;2024-03-08T04:42:56;31.40;;;20.33;;
59127;SDS011;44912;52.754;5.994;2024-03-08T04:45:24;35.78;;;22.25;;
59127;SDS011;44912;52.754;5.994;2024-03-08T04:47:51;33.60;;;21.45;;
59127;SDS011;44912;52.754;5.994;2024-03-08T04:50:17;31.98;;;20.77;;
59127;SDS011;44912;52.754;5.994;2024-03-08T04:52:43;32.95;;;20.58;;
59127;SDS011;44912;52.754;5.994;2024-03-08T04:55:09;33.38;;;21.15;;
59127;SDS011;44912;52.754;5.994;2024-03-08T04:57:34;32.80;;;21.23;;
59127;SDS011;44912;52.754;5.994;2024-03-08T05:00:01;34.83;;;20.38;;
59127;SDS011;44912;52.754;5.994;2024-03-08T05:02:29;35.58;;;21.52;;
59127;SDS011;44912;52.754;5.994;2024-03-08T05:04:55;34.08;;;20.98;;
59127;SDS011;44912;52.754;5.994;2024-03-08T05:07:21;33.65;;;20.23;;
59127;SDS011;44912;52.754;5.994;2024-03-08T05:09:47;35.15;;;22.23;;
59127;SDS011;44912;52.754;5.994;2024-03-08T05:12:17;31.90;;;21.65;;
59127;SDS011;44912;52.754;5.994;2024-03-08T05:14:44;36.03;;;22.55;;
59127;SDS011;44912;52.754;5.994;2024-03-08T05:17:11;37.17;;;22.23;;
59127;SDS011;44912;52.754;5.994;2024-03-08T05:19:37;34.05;;;20.95;;
59127;SDS011;44912;52.754;5.994;2024-03-08T05:22:03;32.58;;;21.95;;
59127;SDS011;44912;52.754;5.994;2024-03-08T05:24:29;32.33;;;20.85;;
59127;SDS011;44912;52.754;5.994;2024-03-08T05:26:55;34.42;;;20.95;;
59127;SDS011;44912;52.754;5.994;2024-03-08T05:29:21;36.08;;;21.42;;
59127;SDS011;44912;52.754;5.994;2024-03-08T05:31:47;34.85;;;21.55;;
59127;SDS011;44912;52.754;5.994;2024-03-08T05:34:14;34.53;;;22.17;;
59127;SDS011;44912;52.754;5.994;2024-03-08T05:36:41;36.50;;;22.42;;
59127;SDS011;44912;52.754;5.994;2024-03-08T05:39:11;37.13;;;21.60;;
59127;SDS011;44912;52.754;5.994;2024-03-08T05:41:40;38.10;;;22.42;;
59127;SDS011;44912;52.754;5.994;2024-03-08T05:44:11;33.55;;;22.33;;
59127;SDS011;44912;52.754;5.994;2024-03-08T05:46:37;34.17;;;21.83;;
59127;SDS011;44912;52.754;5.994;2024-03-08T05:49:06;35.40;;;21.20;;
59127;SDS011;44912;52.754;5.994;2024-03-08T05:51:32;31.30;;;20.30;;
59127;SDS011;44912;52.754;5.994;2024-03-08T05:54:03;34.10;;;20.83;;
59127;SDS011;44912;52.754;5.994;2024-03-08T05:56:30;34.15;;;21.38;;
59127;SDS011;44912;52.754;5.994;2024-03-08T05:58:57;33.42;;;21.58;;
59127;SDS011;44912;52.754;5.994;2024-03-08T06:01:25;32.97;;;20.65;;
59127;SDS011;44912;52.754;5.994;2024-03-08T06:03:54;36.45;;;21.70;;
59127;SDS011;44912;52.754;5.994;2024-03-08T06:06:25;35.90;;;21.75;;
59127;SDS011;44912;52.754;5.994;2024-03-08T06:08:51;35.63;;;21.90;;
59127;SDS011;44912;52.754;5.994;2024-03-08T06:11:17;34.83;;;21.27;;
59127;SDS011;44912;52.754;5.994;2024-03-08T06:13:44;33.88;;;21.75;;
59127;SDS011;44912;52.754;5.994;2024-03-08T06:16:10;36.45;;;22.33;;
59127;SDS011;44912;52.754;5.994;2024-03-08T06:18:36;34.90;;;21.02;;
59127;SDS011;44912;52.754;5.994;2024-03-08T06:21:03;35.30;;;22.42;;
59127;SDS011;44912;52.754;5.994;2024-03-08T06:23:32;35.28;;;20.58;;
59127;SDS011;44912;52.754;5.994;2024-03-08T06:25:58;34.72;;;20.65;;
59127;SDS011;44912;52.754;5.994;2024-03-08T06:28:24;34.38;;;22.02;;
59127;SDS011;44912;52.754;5.994;2024-03-08T06:30:50;34.50;;;21.35;;
59127;SDS011;44912;52.754;5.994;2024-03-08T06:33:16;34.03;;;21.38;;
59127;SDS011;44912;52.754;5.994;2024-03-08T06:35:43;34.13;;;20.77;;
59127;SDS011;44912;52.754;5.994;2024-03-08T06:38:08;33.83;;;20.70;;
59127;SDS011;44912;52.754;5.994;2024-03-08T06:40:34;36.60;;;21.23;;
59127;SDS011;44912;52.754;5.994;2024-03-08T06:43:00;34.92;;;22.00;;
59127;SDS011;44912;52.754;5.994;2024-03-08T06:45:25;36.22;;;23.05;;
59127;SDS011;44912;52.754;5.994;2024-03-08T06:47:51;34.22;;;21.38;;
59127;SDS011;44912;52.754;5.994;2024-03-08T06:50:17;36.00;;;22.33;;
59127;SDS011;44912;52.754;5.994;2024-03-08T06:52:42;32.70;;;21.63;;
59127;SDS011;44912;52.754;5.994;2024-03-08T06:55:09;34.55;;;21.65;;
59127;SDS011;44912;52.754;5.994;2024-03-08T06:57:41;38.22;;;22.35;;
59127;SDS011;44912;52.754;5.994;2024-03-08T07:00:07;36.10;;;22.92;;
59127;SDS011;44912;52.754;5.994;2024-03-08T07:02:43;38.05;;;23.10;;
59127;SDS011;44912;52.754;5.994;2024-03-08T07:05:13;34.08;;;22.45;;
59127;SDS011;44912;52.754;5.994;2024-03-08T07:07:39;35.42;;;21.70;;
59127;SDS011;44912;52.754;5.994;2024-03-08T07:10:06;34.67;;;22.50;;
59127;SDS011;44912;52.754;5.994;2024-03-08T07:12:36;35.05;;;21.63;;
59127;SDS011;44912;52.754;5.994;2024-03-08T07:15:05;33.45;;;21.92;;
59127;SDS011;44912;52.754;5.994;2024-03-08T07:17:31;39.25;;;23.30;;
59127;SDS011;44912;52.754;5.994;2024-03-08T07:19:59;36.30;;;21.50;;
59127;SDS011;44912;52.754;5.994;2024-03-08T07:22:32;37.58;;;22.83;;
59127;SDS011;44912;52.754;5.994;2024-03-08T07:24:58;36.60;;;22.20;;
59127;SDS011;44912;52.754;5.994;2024-03-08T07:27:44;36.85;;;22.13;;
59127;SDS011;44912;52.754;5.994;2024-03-08T07:30:11;34.33;;;21.42;;
59127;SDS011;44912;52.754;5.994;2024-03-08T07:32:37;34.88;;;22.48;;
59127;SDS011;44912;52.754;5.994;2024-03-08T07:35:03;37.00;;;21.90;;
59127;SDS011;44912;52.754;5.994;2024-03-08T07:37:29;32.58;;;20.30;;
59127;SDS011;44912;52.754;5.994;2024-03-08T07:39:55;35.83;;;22.27;;
59127;SDS011;44912;52.754;5.994;2024-03-08T07:42:21;36.72;;;21.60;;
59127;SDS011;44912;52.754;5.994;2024-03-08T07:44:48;35.08;;;21.58;;
59127;SDS011;44912;52.754;5.994;2024-03-08T07:47:15;33.80;;;21.73;;
59127;SDS011;44912;52.754;5.994;2024-03-08T07:49:42;33.78;;;21.95;;
59127;SDS011;44912;52.754;5.994;2024-03-08T07:52:09;35.15;;;21.17;;
59127;SDS011;44912;52.754;5.994;2024-03-08T07:54:40;32.25;;;20.15;;
59127;SDS011;44912;52.754;5.994;2024-03-08T07:57:06;33.28;;;21.35;;
59127;SDS011;44912;52.754;5.994;2024-03-08T07:59:32;34.25;;;20.95;;
59127;SDS011;44912;52.754;5.994;2024-03-08T08:01:58;34.72;;;21.52;;
59127;SDS011;44912;52.754;5.994;2024-03-08T08:04:24;37.70;;;22.17;;
59127;SDS011;44912;52.754;5.994;2024-03-08T08:06:51;35.30;;;21.75;;
59127;SDS011;44912;52.754;5.994;2024-03-08T08:09:17;32.90;;;20.17;;
59127;SDS011;44912;52.754;5.994;2024-03-08T08:11:53;33.67;;;21.88;;
59127;SDS011;44912;52.754;5.994;2024-03-08T08:14:19;36.38;;;22.30;;
59127;SDS011;44912;52.754;5.994;2024-03-08T08:16:46;32.15;;;20.88;;
59127;SDS011;44912;52.754;5.994;2024-03-08T08:19:13;32.13;;;21.13;;
59127;SDS011;44912;52.754;5.994;2024-03-08T08:21:40;34.28;;;21.77;;
59127;SDS011;44912;52.754;5.994;2024-03-08T08:24:06;33.40;;;21.95;;
59127;SDS011;44912;52.754;5.994;2024-03-08T08:26:32;34.55;;;21.98;;
59127;SDS011;44912;52.754;5.994;2024-03-08T08:28:59;31.77;;;20.85;;
59127;SDS011;44912;52.754;5.994;2024-03-08T08:31:25;33.28;;;21.25;;
59127;SDS011;44912;52.754;5.994;2024-03-08T08:33:51;33.35;;;21.65;;
59127;SDS011;44912;52.754;5.994;2024-03-08T08:36:22;32.42;;;21.08;;
59127;SDS011;44912;52.754;5.994;2024-03-08T08:38:51;34.83;;;20.60;;
59127;SDS011;44912;52.754;5.994;2024-03-08T08:41:19;31.00;;;20.52;;
59127;SDS011;44912;52.754;5.994;2024-03-08T08:43:46;31.77;;;20.08;;
59127;SDS011;44912;52.754;5.994;2024-03-08T08:46:16;32.65;;;20.98;;
59127;SDS011;44912;52.754;5.994;2024-03-08T08:48:42;32.95;;;20.75;;
59127;SDS011;44912;52.754;5.994;2024-03-08T08:51:10;33.05;;;21.55;;
59127;SDS011;44912;52.754;5.994;2024-03-08T08:53:40;32.13;;;21.65;;
59127;SDS011;44912;52.754;5.994;2024-03-08T08:56:08;29.75;;;20.63;;
59127;SDS011;44912;52.754;5.994;2024-03-08T08:58:34;31.77;;;20.88;;
59127;SDS011;44912;52.754;5.994;2024-03-08T09:01:00;32.70;;;20.95;;
59127;SDS011;44912;52.754;5.994;2024-03-08T09:03:26;31.13;;;21.15;;
59127;SDS011;44912;52.754;5.994;2024-03-08T09:05:53;31.52;;;19.67;;
59127;SDS011;44912;52.754;5.994;2024-03-08T09:08:19;29.52;;;20.58;;
59127;SDS011;44912;52.754;5.994;2024-03-08T09:10:45;30.80;;;20.70;;
59127;SDS011;44912;52.754;5.994;2024-03-08T09:13:12;30.65;;;20.48;;
59127;SDS011;44912;52.754;5.994;2024-03-08T09:15:38;32.40;;;21.30;;
59127;SDS011;44912;52.754;5.994;2024-03-08T09:18:05;31.65;;;20.67;;
59127;SDS011;44912;52.754;5.994;2024-03-08T09:20:31;31.30;;;20.90;;
59127;SDS011;44912;52.754;5.994;2024-03-08T09:22:58;32.70;;;21.33;;
59127;SDS011;44912;52.754;5.994;2024-03-08T09:25:25;33.60;;;22.50;;
59127;SDS011;44912;52.754;5.994;2024-03-08T09:27:51;32.03;;;21.60;;
59127;SDS011;44912;52.754;5.994;2024-03-08T09:30:16;29.25;;;19.92;;
59127;SDS011;44912;52.754;5.994;2024-03-08T09:32:43;31.27;;;20.67;;
59127;SDS011;44912;52.754;5.994;2024-03-08T09:35:08;30.73;;;20.67;;
59127;SDS011;44912;52.754;5.994;2024-03-08T09:37:34;30.27;;;21.80;;
59127;SDS011;44912;52.754;5.994;2024-03-08T09:40:00;33.50;;;21.52;;
59127;SDS011;44912;52.754;5.994;2024-03-08T09:42:29;33.78;;;22.33;;
59127;SDS011;44912;52.754;5.994;2024-03-08T09:44:57;30.52;;;20.98;;
59127;SDS011;44912;52.754;5.994;2024-03-08T09:47:24;29.67;;;20.92;;
59127;SDS011;44912;52.754;5.994;2024-03-08T09:49:54;31.00;;;22.20;;
59127;SDS011;44912;52.754;5.994;2024-03-08T09:52:20;32.83;;;22.30;;
59127;SDS011;44912;52.754;5.994;2024-03-08T09:54:46;32.88;;;21.27;;
59127;SDS011;44912;52.754;5.994;2024-03-08T09:57:11;30.75;;;21.05;;
59127;SDS011;44912;52.754;5.994;2024-03-08T09:59:37;32.58;;;21.83;;
59127;SDS011;44912;52.754;5.994;2024-03-08T10:02:03;30.55;;;21.73;;
59127;SDS011;44912;52.754;5.994;2024-03-08T10:04:29;32.50;;;21.92;;
59127;SDS011;44912;52.754;5.994;2024-03-08T10:06:58;29.77;;;21.35;;
59127;SDS011;44912;52.754;5.994;2024-03-08T10:09:25;32.85;;;22.00;;
59127;SDS011;44912;52.754;5.994;2024-03-08T10:11:58;34.00;;;21.83;;
59127;SDS011;44912;52.754;5.994;2024-03-08T10:14:27;30.38;;;21.17;;
59127;SDS011;44912;52.754;5.994;2024-03-08T10:16:53;30.23;;;21.42;;
59127;SDS011;44912;52.754;5.994;2024-03-08T10:19:19;30.48;;;21.58;;
59127;SDS011;44912;52.754;5.994;2024-03-08T10:21:49;32.80;;;22.45;;
59127;SDS011;44912;52.754;5.994;2024-03-08T10:24:24;32.38;;;21.33;;
59127;SDS011;44912;52.754;5.994;2024-03-08T10:26:53;29.38;;;21.80;;
59127;SDS011;44912;52.754;5.994;2024-03-08T10:29:23;29.15;;;21.27;;
59127;SDS011;44912;52.754;5.994;2024-03-08T10:31:49;27.98;;;20.25;;
59127;SDS011;44912;52.754;5.994;2024-03-08T10:34:15;29.38;;;20.67;;
59127;SDS011;44912;52.754;5.994;2024-03-08T10:36:41;31.92;;;20.85;;
59127;SDS011;44912;52.754;5.994;2024-03-08T10:39:10;30.88;;;21.27;;
59127;SDS011;44912;52.754;5.994;2024-03-08T10:41:49;29.70;;;20.15;;
59127;SDS011;44912;52.754;5.994;2024-03-08T10:47:00;30.95;;;19.70;;
59127;SDS011;44912;52.754;5.994;2024-03-08T10:49:50;28.98;;;20.27;;
59127;SDS011;44912;52.754;5.994;2024-03-08T10:52:19;28.77;;;20.83;;
59127;SDS011;44912;52.754;5.994;2024-03-08T10:54:45;28.85;;;19.77;;
59127;SDS011;44912;52.754;5.994;2024-03-08T10:57:14;31.02;;;22.05;;
59127;SDS011;44912;52.754;5.994;2024-03-08T10:59:45;29.33;;;19.95;;
59127;SDS011;44912;52.754;5.994;2024-03-08T11:02:14;28.38;;;20.27;;
59127;SDS011;44912;52.754;5.994;2024-03-08T11:04:45;31.30;;;21.48;;
59127;SDS011;44912;52.754;5.994;2024-03-08T11:07:12;30.05;;;20.58;;
59127;SDS011;44912;52.754;5.994;2024-03-08T11:09:42;31.27;;;22.13;;
59127;SDS011;44912;52.754;5.994;2024-03-08T11:12:18;29.67;;;21.58;;
59127;SDS011;44912;52.754;5.994;2024-03-08T11:14:51;28.33;;;20.27;;
59127;SDS011;44912;52.754;5.994;2024-03-08T11:19:55;28.13;;;20.23;;
59127;SDS011;44912;52.754;5.994;2024-03-08T11:22:28;28.30;;;20.20;;
59127;SDS011;44912;52.754;5.994;2024-03-08T11:25:03;31.10;;;21.23;;
59127;SDS011;44912;52.754;5.994;2024-03-08T11:27:35;31.67;;;22.25;;
59127;SDS011;44912;52.754;5.994;2024-03-08T11:30:08;29.67;;;20.48;;
59127;SDS011;44912;52.754;5.994;2024-03-08T11:32:37;28.27;;;20.85;;
59127;SDS011;44912;52.754;5.994;2024-03-08T11:35:07;28.02;;;20.42;;
59127;SDS011;44912;52.754;5.994;2024-03-08T11:37:43;31.42;;;21.10;;
59127;SDS011;44912;52.754;5.994;2024-03-08T11:40:12;30.05;;;21.88;;
59127;SDS011;44912;52.754;5.994;2024-03-08T11:42:48;30.98;;;20.25;;
59127;SDS011;44912;52.754;5.994;2024-03-08T11:45:15;29.25;;;19.73;;
59127;SDS011;44912;52.754;5.994;2024-03-08T11:47:45;31.38;;;19.92;;
59127;SDS011;44912;52.754;5.994;2024-03-08T11:50:11;29.58;;;21.38;;
59127;SDS011;44912;52.754;5.994;2024-03-08T11:52:37;30.40;;;20.30;;
59127;SDS011;44912;52.754;5.994;2024-03-08T11:55:03;28.85;;;20.23;;
59127;SDS011;44912;52.754;5.994;2024-03-08T11:57:30;27.85;;;20.13;;
59127;SDS011;44912;52.754;5.994;2024-03-08T11:59:57;27.65;;;20.33;;
59127;SDS011;44912;52.754;5.994;2024-03-08T12:02:31;28.67;;;20.67;;
59127;SDS011;44912;52.754;5.994;2024-03-08T12:04:57;28.20;;;19.83;;
59127;SDS011;44912;52.754;5.994;2024-03-08T12:07:24;30.42;;;19.50;;
59127;SDS011;44912;52.754;5.994;2024-03-08T12:12:49;27.52;;;19.08;;
59127;SDS011;44912;52.754;5.994;2024-03-08T12:15:16;26.67;;;19.83;;
59127;SDS011;44912;52.754;5.994;2024-03-08T12:17:43;24.00;;;17.75;;
59127;SDS011;44912;52.754;5.994;2024-03-08T12:22:43;28.38;;;19.23;;
59127;SDS011;44912;52.754;5.994;2024-03-08T12:25:12;25.73;;;18.95;;
59127;SDS011;44912;52.754;5.994;2024-03-08T12:27:42;25.73;;;18.70;;
59127;SDS011;44912;52.754;5.994;2024-03-08T12:30:15;26.60;;;18.70;;
59127;SDS011;44912;52.754;5.994;2024-03-08T12:32:57;27.73;;;19.30;;
59127;SDS011;44912;52.754;5.994;2024-03-08T12:35:28;27.00;;;19.10;;
59127;SDS011;44912;52.754;5.994;2024-03-08T12:37:56;27.85;;;19.30;;
59127;SDS011;44912;52.754;5.994;2024-03-08T12:40:26;26.83;;;18.70;;
59127;SDS011;44912;52.754;5.994;2024-03-08T12:42:53;26.90;;;19.42;;
59127;SDS011;44912;52.754;5.994;2024-03-08T12:45:20;26.63;;;18.42;;
59127;SDS011;44912;52.754;5.994;2024-03-08T12:47:48;24.60;;;18.00;;
59127;SDS011;44912;52.754;5.994;2024-03-08T12:50:15;22.73;;;17.08;;
59127;SDS011;44912;52.754;5.994;2024-03-08T12:52:43;24.48;;;18.33;;
59127;SDS011;44912;52.754;5.994;2024-03-08T12:55:08;25.38;;;18.33;;
59127;SDS011;44912;52.754;5.994;2024-03-08T12:57:34;26.25;;;18.30;;
59127;SDS011;44912;52.754;5.994;2024-03-08T13:00:03;26.75;;;17.60;;
59127;SDS011;44912;52.754;5.994;2024-03-08T13:02:29;26.45;;;18.98;;
59127;SDS011;44912;52.754;5.994;2024-03-08T13:04:57;26.33;;;19.23;;
59127;SDS011;44912;52.754;5.994;2024-03-08T13:07:24;26.35;;;19.38;;
59127;SDS011;44912;52.754;5.994;2024-03-08T13:09:54;24.60;;;17.77;;
59127;SDS011;44912;52.754;5.994;2024-03-08T13:12:20;25.63;;;17.27;;
59127;SDS011;44912;52.754;5.994;2024-03-08T13:14:47;24.77;;;17.60;;
59127;SDS011;44912;52.754;5.994;2024-03-08T13:17:16;25.65;;;18.33;;
59127;SDS011;44912;52.754;5.994;2024-03-08T13:19:43;25.08;;;17.70;;
59127;SDS011;44912;52.754;5.994;2024-03-08T13:22:09;25.13;;;18.23;;
59127;SDS011;44912;52.754;5.994;2024-03-08T13:24:41;23.55;;;17.15;;
59127;SDS011;44912;52.754;5.994;2024-03-08T13:27:10;25.92;;;17.67;;
59127;SDS011;44912;52.754;5.994;2024-03-08T13:29:46;25.15;;;17.95;;
59127;SDS011;44912;52.754;5.994;2024-03-08T13:32:13;23.27;;;17.08;;
59127;SDS011;44912;52.754;5.994;2024-03-08T13:34:45;22.80;;;16.38;;
59127;SDS011;44912;52.754;5.994;2024-03-08T13:37:12;23.17;;;16.70;;
59127;SDS011;44912;52.754;5.994;2024-03-08T13:39:41;21.95;;;16.63;;
59127;SDS011;44912;52.754;5.994;2024-03-08T13:42:11;21.85;;;15.80;;
59127;SDS011;44912;52.754;5.994;2024-03-08T13:44:39;21.83;;;16.10;;
59127;SDS011;44912;52.754;5.994;2024-03-08T13:47:08;23.52;;;15.98;;
59127;SDS011;44912;52.754;5.994;2024-03-08T13:49:33;22.92;;;16.45;;
59127;SDS011;44912;52.754;5.994;2024-03-08T13:51:59;24.85;;;17.35;;
59127;SDS011;44912;52.754;5.994;2024-03-08T13:54:25;23.63;;;17.08;;
59127;SDS011;44912;52.754;5.994;2024-03-08T13:56:52;24.08;;;16.83;;
59127;SDS011;44912;52.754;5.994;2024-03-08T13:59:19;23.38;;;16.27;;
59127;SDS011;44912;52.754;5.994;2024-03-08T14:01:47;24.65;;;16.73;;
59127;SDS011;44912;52.754;5.994;2024-03-08T14:04:14;21.20;;;16.17;;
59127;SDS011;44912;52.754;5.994;2024-03-08T14:06:42;23.38;;;16.17;;
59127;SDS011;44912;52.754;5.994;2024-03-08T14:09:10;23.67;;;16.08;;
59127;SDS011;44912;52.754;5.994;2024-03-08T14:11:42;25.42;;;16.92;;
59127;SDS011;44912;52.754;5.994;2024-03-08T14:14:11;24.90;;;16.95;;
59127;SDS011;44912;52.754;5.994;2024-03-08T14:16:39;23.20;;;16.58;;
59127;SDS011;44912;52.754;5.994;2024-03-08T14:19:05;26.10;;;17.63;;
59127;SDS011;44912;52.754;5.994;2024-03-08T14:21:31;23.23;;;17.73;;
59127;SDS011;44912;52.754;5.994;2024-03-08T14:23:58;24.02;;;17.00;;
59127;SDS011;44912;52.754;5.994;2024-03-08T14:26:24;23.88;;;16.80;;
59127;SDS011;44912;52.754;5.994;2024-03-08T14:28:49;23.63;;;16.83;;
59127;SDS011;44912;52.754;5.994;2024-03-08T14:31:19;25.42;;;17.88;;
59127;SDS011;44912;52.754;5.994;2024-03-08T14:33:48;23.25;;;17.33;;